sensor_id;sensor_type;location;lat;lon;timestamp;temperature;humidity
44517;DHT22;30223;17.182;-96.766;2022-10-16T00:01:38;26.80;49.80
44517;DHT22;30223;17.182;-96.766;2022-10-16T00:04:05;26.60;48.80
44517;DHT22;30223;17.182;-96.766;2022-10-16T00:06:32;26.50;48.60
44517;DHT22;30223;17.182;-96.766;2022-10-16T00:08:59;26.40;48.10
44517;DHT22;30223;17.182;-96.766;2022-10-16T00:11:28;26.40;48.70
44517;DHT22;30223;17.182;-96.766;2022-10-16T00:13:58;26.30;48.60
44517;DHT22;30223;17.182;-96.766;2022-10-16T00:16:26;26.30;48.40
44517;DHT22;30223;17.182;-96.766;2022-10-16T00:18:53;26.30;48.70
44517;DHT22;30223;17.182;-96.766;2022-10-16T00:21:23;26.20;48.80
44517;DHT22;30223;17.182;-96.766;2022-10-16T00:23:52;26.10;48.40
44517;DHT22;30223;17.182;-96.766;2022-10-16T00:26:19;26.10;48.20
44517;DHT22;30223;17.182;-96.766;2022-10-16T00:28:50;26.10;48.70
44517;DHT22;30223;17.182;-96.766;2022-10-16T00:31:19;26.00;48.50
44517;DHT22;30223;17.182;-96.766;2022-10-16T00:33:46;26.00;48.20
44517;DHT22;30223;17.182;-96.766;2022-10-16T00:36:15;25.90;47.60
44517;DHT22;30223;17.182;-96.766;2022-10-16T00:38:42;25.80;47.70
44517;DHT22;30223;17.182;-96.766;2022-10-16T00:41:12;25.80;47.90
44517;DHT22;30223;17.182;-96.766;2022-10-16T00:43:43;25.80;47.50
44517;DHT22;30223;17.182;-96.766;2022-10-16T00:49:17;25.80;47.80
44517;DHT22;30223;17.182;-96.766;2022-10-16T00:51:47;25.60;47.50
44517;DHT22;30223;17.182;-96.766;2022-10-16T00:54:22;25.60;47.40
44517;DHT22;30223;17.182;-96.766;2022-10-16T00:56:54;25.70;47.70
44517;DHT22;30223;17.182;-96.766;2022-10-16T00:59:29;25.70;47.50
44517;DHT22;30223;17.182;-96.766;2022-10-16T01:01:57;25.60;47.20
44517;DHT22;30223;17.182;-96.766;2022-10-16T01:04:25;25.50;47.10
44517;DHT22;30223;17.182;-96.766;2022-10-16T01:10:34;25.50;47.20
44517;DHT22;30223;17.182;-96.766;2022-10-16T01:15:19;25.40;47.40
44517;DHT22;30223;17.182;-96.766;2022-10-16T01:17:53;25.50;47.90
44517;DHT22;30223;17.182;-96.766;2022-10-16T01:20:30;25.50;47.70
44517;DHT22;30223;17.182;-96.766;2022-10-16T01:31:26;25.50;48.20
44517;DHT22;30223;17.182;-96.766;2022-10-16T01:34:05;25.50;48.20
44517;DHT22;30223;17.182;-96.766;2022-10-16T01:36:39;25.50;48.50
44517;DHT22;30223;17.182;-96.766;2022-10-16T01:39:09;25.60;48.70
44517;DHT22;30223;17.182;-96.766;2022-10-16T01:41:45;25.50;48.50
44517;DHT22;30223;17.182;-96.766;2022-10-16T01:44:21;25.50;48.60
44517;DHT22;30223;17.182;-96.766;2022-10-16T01:46:52;25.50;48.80
44517;DHT22;30223;17.182;-96.766;2022-10-16T01:49:21;25.50;48.80
44517;DHT22;30223;17.182;-96.766;2022-10-16T01:51:52;25.50;48.90
44517;DHT22;30223;17.182;-96.766;2022-10-16T01:54:20;25.40;48.00
44517;DHT22;30223;17.182;-96.766;2022-10-16T01:56:51;25.40;48.50
44517;DHT22;30223;17.182;-96.766;2022-10-16T01:59:20;25.40;48.90
44517;DHT22;30223;17.182;-96.766;2022-10-16T02:01:51;25.30;49.30
44517;DHT22;30223;17.182;-96.766;2022-10-16T02:04:40;25.30;49.30
44517;DHT22;30223;17.182;-96.766;2022-10-16T02:07:09;25.30;49.50
44517;DHT22;30223;17.182;-96.766;2022-10-16T02:09:36;25.20;49.50
44517;DHT22;30223;17.182;-96.766;2022-10-16T02:12:29;25.30;49.70
44517;DHT22;30223;17.182;-96.766;2022-10-16T02:14:57;25.20;49.70
44517;DHT22;30223;17.182;-96.766;2022-10-16T02:17:24;25.20;49.90
44517;DHT22;30223;17.182;-96.766;2022-10-16T02:19:53;25.20;50.00
44517;DHT22;30223;17.182;-96.766;2022-10-16T02:22:38;25.30;50.10
44517;DHT22;30223;17.182;-96.766;2022-10-16T02:27:44;25.20;50.70
44517;DHT22;30223;17.182;-96.766;2022-10-16T02:33:02;25.10;50.90
44517;DHT22;30223;17.182;-96.766;2022-10-16T02:35:31;25.20;51.00
44517;DHT22;30223;17.182;-96.766;2022-10-16T02:37:58;25.20;51.10
44517;DHT22;30223;17.182;-96.766;2022-10-16T02:40:26;25.20;51.40
44517;DHT22;30223;17.182;-96.766;2022-10-16T02:42:54;25.10;51.30
44517;DHT22;30223;17.182;-96.766;2022-10-16T02:45:21;25.10;51.30
44517;DHT22;30223;17.182;-96.766;2022-10-16T02:47:48;25.10;51.80
44517;DHT22;30223;17.182;-96.766;2022-10-16T02:50:15;25.10;51.10
44517;DHT22;30223;17.182;-96.766;2022-10-16T02:52:42;25.10;50.90
44517;DHT22;30223;17.182;-96.766;2022-10-16T02:55:09;25.10;50.60
44517;DHT22;30223;17.182;-96.766;2022-10-16T02:57:35;25.00;50.70
44517;DHT22;30223;17.182;-96.766;2022-10-16T03:00:05;25.00;50.50
44517;DHT22;30223;17.182;-96.766;2022-10-16T03:02:31;25.00;50.60
44517;DHT22;30223;17.182;-96.766;2022-10-16T03:04:58;25.00;50.50
44517;DHT22;30223;17.182;-96.766;2022-10-16T03:07:25;24.90;50.40
44517;DHT22;30223;17.182;-96.766;2022-10-16T03:09:51;24.90;50.70
44517;DHT22;30223;17.182;-96.766;2022-10-16T03:12:18;24.80;50.80
44517;DHT22;30223;17.182;-96.766;2022-10-16T03:14:44;24.90;51.00
44517;DHT22;30223;17.182;-96.766;2022-10-16T03:17:11;24.80;51.30
44517;DHT22;30223;17.182;-96.766;2022-10-16T03:19:39;24.80;51.70
44517;DHT22;30223;17.182;-96.766;2022-10-16T03:22:05;24.80;51.80
44517;DHT22;30223;17.182;-96.766;2022-10-16T03:24:32;24.80;52.20
44517;DHT22;30223;17.182;-96.766;2022-10-16T03:26:59;24.80;52.40
44517;DHT22;30223;17.182;-96.766;2022-10-16T03:29:26;24.90;52.50
44517;DHT22;30223;17.182;-96.766;2022-10-16T03:31:56;24.90;52.60
44517;DHT22;30223;17.182;-96.766;2022-10-16T03:34:22;24.90;53.40
44517;DHT22;30223;17.182;-96.766;2022-10-16T03:36:49;24.90;52.70
44517;DHT22;30223;17.182;-96.766;2022-10-16T03:39:15;24.90;52.80
44517;DHT22;30223;17.182;-96.766;2022-10-16T03:41:42;24.90;53.60
44517;DHT22;30223;17.182;-96.766;2022-10-16T03:44:09;24.80;52.80
44517;DHT22;30223;17.182;-96.766;2022-10-16T03:46:35;24.80;53.00
44517;DHT22;30223;17.182;-96.766;2022-10-16T03:49:02;24.70;53.40
44517;DHT22;30223;17.182;-96.766;2022-10-16T03:51:28;24.70;54.00
44517;DHT22;30223;17.182;-96.766;2022-10-16T03:53:55;24.60;54.30
44517;DHT22;30223;17.182;-96.766;2022-10-16T03:56:22;24.60;54.40
44517;DHT22;30223;17.182;-96.766;2022-10-16T03:58:48;24.60;54.60
44517;DHT22;30223;17.182;-96.766;2022-10-16T04:01:15;24.60;54.60
44517;DHT22;30223;17.182;-96.766;2022-10-16T04:03:42;24.60;54.90
44517;DHT22;30223;17.182;-96.766;2022-10-16T04:06:08;24.50;55.00
44517;DHT22;30223;17.182;-96.766;2022-10-16T04:08:35;24.60;55.30
44517;DHT22;30223;17.182;-96.766;2022-10-16T04:11:03;24.50;55.20
44517;DHT22;30223;17.182;-96.766;2022-10-16T04:13:29;24.40;55.50
44517;DHT22;30223;17.182;-96.766;2022-10-16T04:15:56;24.50;55.50
44517;DHT22;30223;17.182;-96.766;2022-10-16T04:18:23;24.40;55.60
44517;DHT22;30223;17.182;-96.766;2022-10-16T04:20:53;24.40;55.80
44517;DHT22;30223;17.182;-96.766;2022-10-16T04:23:20;24.30;55.80
44517;DHT22;30223;17.182;-96.766;2022-10-16T04:25:49;24.40;55.80
44517;DHT22;30223;17.182;-96.766;2022-10-16T04:28:15;24.30;55.80
44517;DHT22;30223;17.182;-96.766;2022-10-16T04:30:42;24.30;56.30
44517;DHT22;30223;17.182;-96.766;2022-10-16T04:33:09;24.30;56.30
44517;DHT22;30223;17.182;-96.766;2022-10-16T04:35:36;24.30;56.20
44517;DHT22;30223;17.182;-96.766;2022-10-16T04:38:02;24.30;56.30
44517;DHT22;30223;17.182;-96.766;2022-10-16T04:40:29;24.30;56.30
44517;DHT22;30223;17.182;-96.766;2022-10-16T04:42:59;24.20;56.40
44517;DHT22;30223;17.182;-96.766;2022-10-16T04:45:25;24.30;56.30
44517;DHT22;30223;17.182;-96.766;2022-10-16T04:47:52;24.30;56.30
44517;DHT22;30223;17.182;-96.766;2022-10-16T04:50:19;24.30;56.30
44517;DHT22;30223;17.182;-96.766;2022-10-16T04:52:45;24.20;56.40
44517;DHT22;30223;17.182;-96.766;2022-10-16T04:55:12;24.20;56.30
44517;DHT22;30223;17.182;-96.766;2022-10-16T04:57:39;24.20;56.20
44517;DHT22;30223;17.182;-96.766;2022-10-16T05:00:06;24.30;56.60
44517;DHT22;30223;17.182;-96.766;2022-10-16T05:02:34;24.30;56.50
44517;DHT22;30223;17.182;-96.766;2022-10-16T05:05:00;24.30;56.50
44517;DHT22;30223;17.182;-96.766;2022-10-16T05:07:27;24.30;56.60
44517;DHT22;30223;17.182;-96.766;2022-10-16T05:09:53;24.20;56.50
44517;DHT22;30223;17.182;-96.766;2022-10-16T05:12:20;24.20;56.50
44517;DHT22;30223;17.182;-96.766;2022-10-16T05:14:46;24.20;56.50
44517;DHT22;30223;17.182;-96.766;2022-10-16T05:17:13;24.20;56.40
44517;DHT22;30223;17.182;-96.766;2022-10-16T05:19:40;24.20;56.20
44517;DHT22;30223;17.182;-96.766;2022-10-16T05:22:06;24.20;56.20
44517;DHT22;30223;17.182;-96.766;2022-10-16T05:24:33;24.20;56.20
44517;DHT22;30223;17.182;-96.766;2022-10-16T05:27:00;24.10;56.20
44517;DHT22;30223;17.182;-96.766;2022-10-16T05:29:26;24.10;56.20
44517;DHT22;30223;17.182;-96.766;2022-10-16T05:31:53;24.20;56.40
44517;DHT22;30223;17.182;-96.766;2022-10-16T05:34:20;24.20;56.40
44517;DHT22;30223;17.182;-96.766;2022-10-16T05:36:47;24.20;56.50
44517;DHT22;30223;17.182;-96.766;2022-10-16T05:39:15;24.10;56.30
44517;DHT22;30223;17.182;-96.766;2022-10-16T05:41:42;24.00;56.30
44517;DHT22;30223;17.182;-96.766;2022-10-16T05:44:09;24.00;56.60
44517;DHT22;30223;17.182;-96.766;2022-10-16T05:46:35;23.90;56.60
44517;DHT22;30223;17.182;-96.766;2022-10-16T05:49:02;23.90;56.60
44517;DHT22;30223;17.182;-96.766;2022-10-16T05:51:29;23.90;56.70
44517;DHT22;30223;17.182;-96.766;2022-10-16T05:53:55;23.80;56.80
44517;DHT22;30223;17.182;-96.766;2022-10-16T05:56:22;23.80;57.00
44517;DHT22;30223;17.182;-96.766;2022-10-16T05:58:48;23.80;56.90
44517;DHT22;30223;17.182;-96.766;2022-10-16T06:01:17;23.80;57.10
44517;DHT22;30223;17.182;-96.766;2022-10-16T06:03:44;23.70;57.10
44517;DHT22;30223;17.182;-96.766;2022-10-16T06:06:15;23.70;57.20
44517;DHT22;30223;17.182;-96.766;2022-10-16T06:08:43;23.70;57.40
44517;DHT22;30223;17.182;-96.766;2022-10-16T06:11:13;23.80;57.60
44517;DHT22;30223;17.182;-96.766;2022-10-16T06:13:40;23.80;57.70
44517;DHT22;30223;17.182;-96.766;2022-10-16T06:16:09;23.90;57.60
44517;DHT22;30223;17.182;-96.766;2022-10-16T06:18:36;23.90;57.70
44517;DHT22;30223;17.182;-96.766;2022-10-16T06:21:11;23.90;57.70
44517;DHT22;30223;17.182;-96.766;2022-10-16T06:23:38;23.90;57.70
44517;DHT22;30223;17.182;-96.766;2022-10-16T06:26:13;24.00;57.80
44517;DHT22;30223;17.182;-96.766;2022-10-16T06:28:40;24.00;57.70
44517;DHT22;30223;17.182;-96.766;2022-10-16T06:31:08;24.00;57.80
44517;DHT22;30223;17.182;-96.766;2022-10-16T06:33:36;24.00;57.80
44517;DHT22;30223;17.182;-96.766;2022-10-16T06:36:08;24.10;57.70
44517;DHT22;30223;17.182;-96.766;2022-10-16T06:38:35;24.10;57.70
44517;DHT22;30223;17.182;-96.766;2022-10-16T06:41:04;24.10;57.70
44517;DHT22;30223;17.182;-96.766;2022-10-16T06:43:31;24.10;57.60
44517;DHT22;30223;17.182;-96.766;2022-10-16T06:45:59;24.00;57.30
44517;DHT22;30223;17.182;-96.766;2022-10-16T06:48:28;24.10;57.50
44517;DHT22;30223;17.182;-96.766;2022-10-16T06:51:02;24.10;57.50
44517;DHT22;30223;17.182;-96.766;2022-10-16T06:53:31;23.90;57.60
44517;DHT22;30223;17.182;-96.766;2022-10-16T06:55:57;24.00;57.60
44517;DHT22;30223;17.182;-96.766;2022-10-16T06:58:24;23.90;57.50
44517;DHT22;30223;17.182;-96.766;2022-10-16T07:00:55;23.90;57.60
44517;DHT22;30223;17.182;-96.766;2022-10-16T07:03:23;24.00;57.70
44517;DHT22;30223;17.182;-96.766;2022-10-16T07:05:49;24.00;57.70
44517;DHT22;30223;17.182;-96.766;2022-10-16T07:08:16;24.00;57.70
44517;DHT22;30223;17.182;-96.766;2022-10-16T07:10:42;24.00;57.70
44517;DHT22;30223;17.182;-96.766;2022-10-16T07:13:09;23.90;57.80
44517;DHT22;30223;17.182;-96.766;2022-10-16T07:15:39;23.90;57.70
44517;DHT22;30223;17.182;-96.766;2022-10-16T07:18:05;23.90;57.70
44517;DHT22;30223;17.182;-96.766;2022-10-16T07:20:32;23.90;57.80
44517;DHT22;30223;17.182;-96.766;2022-10-16T07:22:59;23.90;58.00
44517;DHT22;30223;17.182;-96.766;2022-10-16T07:25:26;23.90;58.00
44517;DHT22;30223;17.182;-96.766;2022-10-16T07:27:52;23.90;57.90
44517;DHT22;30223;17.182;-96.766;2022-10-16T07:30:22;23.90;58.00
44517;DHT22;30223;17.182;-96.766;2022-10-16T07:32:49;23.90;58.10
44517;DHT22;30223;17.182;-96.766;2022-10-16T07:35:15;23.90;58.10
44517;DHT22;30223;17.182;-96.766;2022-10-16T07:37:46;23.90;58.10
44517;DHT22;30223;17.182;-96.766;2022-10-16T07:40:12;23.90;58.20
44517;DHT22;30223;17.182;-96.766;2022-10-16T07:42:39;23.90;58.30
44517;DHT22;30223;17.182;-96.766;2022-10-16T07:45:06;23.90;58.30
44517;DHT22;30223;17.182;-96.766;2022-10-16T07:47:33;23.90;58.30
44517;DHT22;30223;17.182;-96.766;2022-10-16T07:49:59;23.90;58.40
44517;DHT22;30223;17.182;-96.766;2022-10-16T07:52:26;23.90;58.40
44517;DHT22;30223;17.182;-96.766;2022-10-16T07:54:52;23.90;58.50
44517;DHT22;30223;17.182;-96.766;2022-10-16T07:57:19;23.90;58.40
44517;DHT22;30223;17.182;-96.766;2022-10-16T07:59:46;23.90;58.50
44517;DHT22;30223;17.182;-96.766;2022-10-16T08:02:13;23.90;58.50
44517;DHT22;30223;17.182;-96.766;2022-10-16T08:04:40;23.90;58.50
44517;DHT22;30223;17.182;-96.766;2022-10-16T08:07:07;23.80;58.20
44517;DHT22;30223;17.182;-96.766;2022-10-16T08:09:34;23.80;58.40
44517;DHT22;30223;17.182;-96.766;2022-10-16T08:12:01;23.80;58.40
44517;DHT22;30223;17.182;-96.766;2022-10-16T08:14:28;23.80;58.20
44517;DHT22;30223;17.182;-96.766;2022-10-16T08:16:55;23.80;58.20
44517;DHT22;30223;17.182;-96.766;2022-10-16T08:19:21;23.80;58.20
44517;DHT22;30223;17.182;-96.766;2022-10-16T08:21:48;23.80;58.10
44517;DHT22;30223;17.182;-96.766;2022-10-16T08:24:14;23.80;58.20
44517;DHT22;30223;17.182;-96.766;2022-10-16T08:26:41;23.70;58.20
44517;DHT22;30223;17.182;-96.766;2022-10-16T08:29:07;23.70;58.10
44517;DHT22;30223;17.182;-96.766;2022-10-16T08:31:34;23.70;58.20
44517;DHT22;30223;17.182;-96.766;2022-10-16T08:34:00;23.70;58.40
44517;DHT22;30223;17.182;-96.766;2022-10-16T08:36:27;23.70;58.40
44517;DHT22;30223;17.182;-96.766;2022-10-16T08:38:54;23.70;58.50
44517;DHT22;30223;17.182;-96.766;2022-10-16T08:50:08;23.60;59.00
44517;DHT22;30223;17.182;-96.766;2022-10-16T08:52:39;23.50;58.80
44517;DHT22;30223;17.182;-96.766;2022-10-16T08:55:09;23.50;59.00
44517;DHT22;30223;17.182;-96.766;2022-10-16T08:57:43;23.50;59.10
44517;DHT22;30223;17.182;-96.766;2022-10-16T09:00:13;23.50;59.10
44517;DHT22;30223;17.182;-96.766;2022-10-16T09:02:49;23.50;59.40
44517;DHT22;30223;17.182;-96.766;2022-10-16T09:11:08;23.40;59.20
44517;DHT22;30223;17.182;-96.766;2022-10-16T09:14:04;23.40;59.30
44517;DHT22;30223;17.182;-96.766;2022-10-16T09:16:51;23.40;59.40
44517;DHT22;30223;17.182;-96.766;2022-10-16T09:19:30;23.40;59.40
44517;DHT22;30223;17.182;-96.766;2022-10-16T09:22:01;23.40;59.50
44517;DHT22;30223;17.182;-96.766;2022-10-16T09:24:29;23.40;59.60
44517;DHT22;30223;17.182;-96.766;2022-10-16T09:26:56;23.40;59.70
44517;DHT22;30223;17.182;-96.766;2022-10-16T09:29:23;23.40;59.60
44517;DHT22;30223;17.182;-96.766;2022-10-16T09:31:52;23.30;59.70
44517;DHT22;30223;17.182;-96.766;2022-10-16T09:34:32;23.40;59.80
44517;DHT22;30223;17.182;-96.766;2022-10-16T09:37:03;23.40;59.70
44517;DHT22;30223;17.182;-96.766;2022-10-16T09:39:30;23.30;59.50
44517;DHT22;30223;17.182;-96.766;2022-10-16T09:41:57;23.30;59.50
44517;DHT22;30223;17.182;-96.766;2022-10-16T09:44:30;23.30;59.40
44517;DHT22;30223;17.182;-96.766;2022-10-16T09:47:05;23.30;59.50
44517;DHT22;30223;17.182;-96.766;2022-10-16T09:49:32;23.30;59.60
44517;DHT22;30223;17.182;-96.766;2022-10-16T09:52:12;23.20;59.60
44517;DHT22;30223;17.182;-96.766;2022-10-16T09:54:53;23.20;59.70
44517;DHT22;30223;17.182;-96.766;2022-10-16T09:57:20;23.30;59.80
44517;DHT22;30223;17.182;-96.766;2022-10-16T09:59:53;23.20;59.60
44517;DHT22;30223;17.182;-96.766;2022-10-16T10:02:38;23.20;59.70
44517;DHT22;30223;17.182;-96.766;2022-10-16T10:05:06;23.20;59.70
44517;DHT22;30223;17.182;-96.766;2022-10-16T10:07:39;23.20;60.00
44517;DHT22;30223;17.182;-96.766;2022-10-16T10:10:32;23.20;59.80
44517;DHT22;30223;17.182;-96.766;2022-10-16T10:12:59;23.20;59.70
44517;DHT22;30223;17.182;-96.766;2022-10-16T10:15:33;23.20;59.90
44517;DHT22;30223;17.182;-96.766;2022-10-16T10:18:00;23.20;60.00
44517;DHT22;30223;17.182;-96.766;2022-10-16T10:20:35;23.20;60.10
44517;DHT22;30223;17.182;-96.766;2022-10-16T10:23:24;23.20;60.10
44517;DHT22;30223;17.182;-96.766;2022-10-16T10:26:18;23.10;60.00
44517;DHT22;30223;17.182;-96.766;2022-10-16T10:37:04;23.10;60.20
44517;DHT22;30223;17.182;-96.766;2022-10-16T10:39:53;23.10;60.30
44517;DHT22;30223;17.182;-96.766;2022-10-16T10:42:32;23.10;60.50
44517;DHT22;30223;17.182;-96.766;2022-10-16T10:45:17;23.10;60.60
44517;DHT22;30223;17.182;-96.766;2022-10-16T10:50:30;23.10;60.90
44517;DHT22;30223;17.182;-96.766;2022-10-16T10:56:04;23.00;60.80
44517;DHT22;30223;17.182;-96.766;2022-10-16T11:07:05;23.00;60.70
44517;DHT22;30223;17.182;-96.766;2022-10-16T11:09:42;23.00;61.00
44517;DHT22;30223;17.182;-96.766;2022-10-16T11:12:24;23.00;61.00
44517;DHT22;30223;17.182;-96.766;2022-10-16T11:15:04;22.90;60.80
44517;DHT22;30223;17.182;-96.766;2022-10-16T11:17:48;22.90;61.00
44517;DHT22;30223;17.182;-96.766;2022-10-16T11:20:24;22.90;60.90
44517;DHT22;30223;17.182;-96.766;2022-10-16T11:22:59;22.90;60.90
44517;DHT22;30223;17.182;-96.766;2022-10-16T11:25:29;22.90;60.90
44517;DHT22;30223;17.182;-96.766;2022-10-16T11:28:05;22.90;61.00
44517;DHT22;30223;17.182;-96.766;2022-10-16T11:33:20;22.80;61.10
44517;DHT22;30223;17.182;-96.766;2022-10-16T11:42:01;22.80;61.00
44517;DHT22;30223;17.182;-96.766;2022-10-16T11:44:48;22.80;61.10
44517;DHT22;30223;17.182;-96.766;2022-10-16T11:53:13;22.80;61.20
44517;DHT22;30223;17.182;-96.766;2022-10-16T11:55:43;22.80;61.30
44517;DHT22;30223;17.182;-96.766;2022-10-16T12:03:41;22.70;61.20
44517;DHT22;30223;17.182;-96.766;2022-10-16T12:08:55;22.70;61.10
44517;DHT22;30223;17.182;-96.766;2022-10-16T12:11:33;22.70;61.20
44517;DHT22;30223;17.182;-96.766;2022-10-16T12:14:22;22.70;61.30
44517;DHT22;30223;17.182;-96.766;2022-10-16T12:17:22;22.60;61.20
44517;DHT22;30223;17.182;-96.766;2022-10-16T12:19:58;22.70;61.30
44517;DHT22;30223;17.182;-96.766;2022-10-16T12:22:28;22.60;61.00
44517;DHT22;30223;17.182;-96.766;2022-10-16T12:24:56;22.60;61.10
44517;DHT22;30223;17.182;-96.766;2022-10-16T12:27:28;22.60;61.30
44517;DHT22;30223;17.182;-96.766;2022-10-16T12:30:00;22.50;61.30
44517;DHT22;30223;17.182;-96.766;2022-10-16T12:32:33;22.60;61.40
44517;DHT22;30223;17.182;-96.766;2022-10-16T12:35:01;22.50;61.30
44517;DHT22;30223;17.182;-96.766;2022-10-16T12:37:35;22.50;61.40
44517;DHT22;30223;17.182;-96.766;2022-10-16T12:40:15;22.50;61.40
44517;DHT22;30223;17.182;-96.766;2022-10-16T12:42:42;22.50;61.40
44517;DHT22;30223;17.182;-96.766;2022-10-16T12:45:29;22.50;61.40
44517;DHT22;30223;17.182;-96.766;2022-10-16T12:47:58;22.50;61.40
44517;DHT22;30223;17.182;-96.766;2022-10-16T12:50:37;22.50;61.50
44517;DHT22;30223;17.182;-96.766;2022-10-16T12:53:19;22.50;61.50
44517;DHT22;30223;17.182;-96.766;2022-10-16T12:56:04;22.50;61.50
44517;DHT22;30223;17.182;-96.766;2022-10-16T13:04:06;22.50;62.00
44517;DHT22;30223;17.182;-96.766;2022-10-16T13:09:22;22.40;62.10
44517;DHT22;30223;17.182;-96.766;2022-10-16T13:14:38;22.50;62.20
44517;DHT22;30223;17.182;-96.766;2022-10-16T13:22:46;22.50;62.50
44517;DHT22;30223;17.182;-96.766;2022-10-16T13:27:55;22.40;62.30
44517;DHT22;30223;17.182;-96.766;2022-10-16T13:30:41;22.50;62.70
44517;DHT22;30223;17.182;-96.766;2022-10-16T13:33:17;22.40;62.30
44517;DHT22;30223;17.182;-96.766;2022-10-16T13:35:54;22.50;63.60
44517;DHT22;30223;17.182;-96.766;2022-10-16T13:38:23;22.50;63.20
44517;DHT22;30223;17.182;-96.766;2022-10-16T13:40:56;22.50;63.40
44517;DHT22;30223;17.182;-96.766;2022-10-16T13:43:49;22.40;63.30
44517;DHT22;30223;17.182;-96.766;2022-10-16T13:46:20;22.40;63.30
44517;DHT22;30223;17.182;-96.766;2022-10-16T13:49:15;22.50;63.40
44517;DHT22;30223;17.182;-96.766;2022-10-16T13:51:57;22.50;63.30
44517;DHT22;30223;17.182;-96.766;2022-10-16T13:54:25;22.40;63.40
44517;DHT22;30223;17.182;-96.766;2022-10-16T13:56:52;22.40;63.80
44517;DHT22;30223;17.182;-96.766;2022-10-16T13:59:34;22.50;63.70
44517;DHT22;30223;17.182;-96.766;2022-10-16T14:02:19;22.50;63.30
44517;DHT22;30223;17.182;-96.766;2022-10-16T14:04:48;22.50;63.90
44517;DHT22;30223;17.182;-96.766;2022-10-16T14:07:28;22.50;63.60
44517;DHT22;30223;17.182;-96.766;2022-10-16T14:09:55;22.50;63.80
44517;DHT22;30223;17.182;-96.766;2022-10-16T14:12:24;22.40;64.20
44517;DHT22;30223;17.182;-96.766;2022-10-16T14:14:53;22.50;64.40
44517;DHT22;30223;17.182;-96.766;2022-10-16T14:19:59;22.50;64.40
44517;DHT22;30223;17.182;-96.766;2022-10-16T14:22:41;22.50;64.20
44517;DHT22;30223;17.182;-96.766;2022-10-16T14:30:36;22.50;64.10
44517;DHT22;30223;17.182;-96.766;2022-10-16T14:38:31;22.50;64.60
44517;DHT22;30223;17.182;-96.766;2022-10-16T14:40:59;22.50;64.40
44517;DHT22;30223;17.182;-96.766;2022-10-16T14:43:35;22.60;64.70
44517;DHT22;30223;17.182;-96.766;2022-10-16T14:46:10;22.50;64.90
44517;DHT22;30223;17.182;-96.766;2022-10-16T14:48:45;22.60;64.90
44517;DHT22;30223;17.182;-96.766;2022-10-16T14:51:14;22.50;64.70
44517;DHT22;30223;17.182;-96.766;2022-10-16T14:53:41;22.50;65.40
44517;DHT22;30223;17.182;-96.766;2022-10-16T14:56:09;22.50;66.20
44517;DHT22;30223;17.182;-96.766;2022-10-16T14:58:40;22.60;67.30
44517;DHT22;30223;17.182;-96.766;2022-10-16T15:01:09;22.60;67.40
44517;DHT22;30223;17.182;-96.766;2022-10-16T15:03:38;22.60;67.40
44517;DHT22;30223;17.182;-96.766;2022-10-16T15:06:13;22.60;67.00
44517;DHT22;30223;17.182;-96.766;2022-10-16T15:08:40;22.60;67.10
44517;DHT22;30223;17.182;-96.766;2022-10-16T15:11:18;22.60;67.60
44517;DHT22;30223;17.182;-96.766;2022-10-16T15:13:48;22.60;67.30
44517;DHT22;30223;17.182;-96.766;2022-10-16T15:16:16;22.60;67.80
44517;DHT22;30223;17.182;-96.766;2022-10-16T15:18:43;22.60;67.70
44517;DHT22;30223;17.182;-96.766;2022-10-16T15:21:30;22.60;66.80
44517;DHT22;30223;17.182;-96.766;2022-10-16T15:23:58;22.60;66.70
44517;DHT22;30223;17.182;-96.766;2022-10-16T15:26:28;22.60;67.10
44517;DHT22;30223;17.182;-96.766;2022-10-16T15:28:56;22.60;67.70
44517;DHT22;30223;17.182;-96.766;2022-10-16T15:31:23;22.60;67.40
44517;DHT22;30223;17.182;-96.766;2022-10-16T15:33:51;22.60;68.10
44517;DHT22;30223;17.182;-96.766;2022-10-16T15:36:29;22.60;67.50
44517;DHT22;30223;17.182;-96.766;2022-10-16T15:38:56;22.60;68.00
44517;DHT22;30223;17.182;-96.766;2022-10-16T15:41:23;22.60;67.70
44517;DHT22;30223;17.182;-96.766;2022-10-16T15:43:50;22.60;67.30
44517;DHT22;30223;17.182;-96.766;2022-10-16T15:46:20;22.60;68.00
44517;DHT22;30223;17.182;-96.766;2022-10-16T15:48:48;22.60;67.70
44517;DHT22;30223;17.182;-96.766;2022-10-16T15:51:15;22.60;67.60
44517;DHT22;30223;17.182;-96.766;2022-10-16T15:53:42;22.60;67.40
44517;DHT22;30223;17.182;-96.766;2022-10-16T15:56:09;22.60;67.30
44517;DHT22;30223;17.182;-96.766;2022-10-16T15:58:37;22.60;67.20
44517;DHT22;30223;17.182;-96.766;2022-10-16T16:01:04;22.60;67.60
44517;DHT22;30223;17.182;-96.766;2022-10-16T16:03:32;22.60;67.50
44517;DHT22;30223;17.182;-96.766;2022-10-16T16:06:03;22.60;67.70
44517;DHT22;30223;17.182;-96.766;2022-10-16T16:08:29;22.60;67.30
44517;DHT22;30223;17.182;-96.766;2022-10-16T16:11:12;22.70;67.50
44517;DHT22;30223;17.182;-96.766;2022-10-16T16:13:39;22.70;67.80
44517;DHT22;30223;17.182;-96.766;2022-10-16T16:16:14;22.70;68.70
44517;DHT22;30223;17.182;-96.766;2022-10-16T16:18:42;22.70;68.80
44517;DHT22;30223;17.182;-96.766;2022-10-16T16:21:10;22.70;68.70
44517;DHT22;30223;17.182;-96.766;2022-10-16T16:23:37;22.70;68.40
44517;DHT22;30223;17.182;-96.766;2022-10-16T16:26:42;22.60;68.00
44517;DHT22;30223;17.182;-96.766;2022-10-16T16:29:05;22.70;68.10
44517;DHT22;30223;17.182;-96.766;2022-10-16T16:31:32;22.70;68.90
44517;DHT22;30223;17.182;-96.766;2022-10-16T16:34:00;22.70;69.10
44517;DHT22;30223;17.182;-96.766;2022-10-16T16:36:27;22.80;69.20
44517;DHT22;30223;17.182;-96.766;2022-10-16T16:38:53;22.80;68.40
44517;DHT22;30223;17.182;-96.766;2022-10-16T16:41:23;22.80;68.00
44517;DHT22;30223;17.182;-96.766;2022-10-16T16:43:52;22.80;67.70
44517;DHT22;30223;17.182;-96.766;2022-10-16T16:46:19;22.80;67.20
44517;DHT22;30223;17.182;-96.766;2022-10-16T16:48:46;22.90;67.20
44517;DHT22;30223;17.182;-96.766;2022-10-16T16:51:17;22.90;66.80
44517;DHT22;30223;17.182;-96.766;2022-10-16T16:53:47;22.90;66.50
44517;DHT22;30223;17.182;-96.766;2022-10-16T16:56:14;22.90;66.40
44517;DHT22;30223;17.182;-96.766;2022-10-16T16:58:41;22.90;66.30
44517;DHT22;30223;17.182;-96.766;2022-10-16T17:01:09;23.00;65.90
44517;DHT22;30223;17.182;-96.766;2022-10-16T17:03:36;23.00;65.70
44517;DHT22;30223;17.182;-96.766;2022-10-16T17:06:07;23.00;66.00
44517;DHT22;30223;17.182;-96.766;2022-10-16T17:08:35;23.10;66.00
44517;DHT22;30223;17.182;-96.766;2022-10-16T17:11:02;23.00;65.50
44517;DHT22;30223;17.182;-96.766;2022-10-16T17:13:32;23.00;65.50
44517;DHT22;30223;17.182;-96.766;2022-10-16T17:16:00;23.00;65.10
44517;DHT22;30223;17.182;-96.766;2022-10-16T17:18:27;23.10;65.50